Meteo

Ora Tempo Temperatura Umidità Vento Precipitazioni
21:00 poche nuvole 12.0° 82% 1.54 km/h 0 mm
Ora Tempo Temperatura Umidità Vento Precipitazioni
00:00 poche nuvole 11.8° 81% 2.08 km/h 0 mm
03:00 cielo sereno 10.9° 82% 3.28 km/h 0 mm
06:00 cielo sereno 11.0° 77% 3.81 km/h 0 mm
09:00 cielo sereno 15.9° 62% 4.83 km/h 0 mm
12:00 cielo sereno 17.4° 57% 1.51 km/h 0 mm
15:00 nubi sparse 17.1° 66% 1.74 km/h 0 mm
18:00 nubi sparse 15.5° 68% 4.66 km/h 0 mm
21:00 cielo sereno 13.4° 69% 5.07 km/h 0 mm
Ora Tempo Temperatura Umidità Vento Precipitazioni
00:00 cielo sereno 11.7° 71% 4.41 km/h 0 mm
03:00 cielo sereno 10.4° 72% 4.82 km/h 0 mm
06:00 cielo sereno 11.9° 65% 4.64 km/h 0 mm
09:00 cielo sereno 17.1° 52% 4.96 km/h 0 mm
12:00 cielo sereno 19.3° 49% 1.85 km/h 0 mm
15:00 cielo sereno 19.9° 49% 3.46 km/h 0 mm
18:00 nubi sparse 16.1° 64% 3.37 km/h 0 mm
21:00 nubi sparse 13.8° 64% 2.86 km/h 0 mm
Ora Tempo Temperatura Umidità Vento Precipitazioni
00:00 poche nuvole 12.3° 67% 2.41 km/h 0 mm
03:00 cielo sereno 11.4° 62% 2 km/h 0 mm
06:00 nubi sparse 12.5° 58% 1.53 km/h 0 mm
09:00 nubi sparse 15.5° 53% 1.55 km/h 0 mm
12:00 nubi sparse 16.5° 56% 3.23 km/h 0 mm
15:00 cielo coperto 16.6° 55% 2.27 km/h 0 mm
18:00 cielo coperto 15.3° 67% 1.59 km/h 0 mm
21:00 cielo coperto 14.5° 68% 1.32 km/h 0 mm
Ora Tempo Temperatura Umidità Vento Precipitazioni
00:00 nubi sparse 13.1° 69% 2.08 km/h 0 mm
03:00 cielo coperto 12.2° 73% 2.44 km/h 0 mm
06:00 cielo coperto 13.4° 73% 3.53 km/h 0 mm
09:00 nubi sparse 16.3° 70% 7.45 km/h 0 mm
12:00 nubi sparse 17.0° 67% 8.66 km/h 0 mm
15:00 cielo coperto 16.9° 67% 7.98 km/h 0 mm
18:00 cielo coperto 15.2° 72% 5.98 km/h 0 mm
21:00 pioggia leggera 15.1° 75% 6.72 km/h 0.22 mm
Ora Tempo Temperatura Umidità Vento Precipitazioni
00:00 pioggia leggera 14.8° 77% 5.44 km/h 0.42 mm
03:00 cielo coperto 14.9° 82% 9.27 km/h 0 mm
06:00 pioggia leggera 15.0° 89% 8.9 km/h 0.27 mm
09:00 pioggia leggera 15.5° 92% 9.43 km/h 0.35 mm
12:00 pioggia leggera 16.6° 84% 9.15 km/h 1.30 mm
15:00 pioggia leggera 16.6° 84% 7.43 km/h 0.25 mm
18:00 nubi sparse 15.7° 91% 7.14 km/h 0 mm
Giovedì 22 Aprile
Temp. max: 12.2°
Temp. min: 12.0°
Ora Tempo Temperatura Umidità Vento Precipitazioni
21:00 poche nuvole 12.0° 82% 1.54 km/h 0 mm
Venerdì 23 Aprile
Temp. max: 17.4°
Temp. min: 10.3°
Ora Tempo Temperatura Umidità Vento Precipitazioni
00:00 poche nuvole 11.8° 81% 2.08 km/h 0 mm
03:00 cielo sereno 10.9° 82% 3.28 km/h 0 mm
06:00 cielo sereno 11.0° 77% 3.81 km/h 0 mm
09:00 cielo sereno 15.9° 62% 4.83 km/h 0 mm
12:00 cielo sereno 17.4° 57% 1.51 km/h 0 mm
15:00 nubi sparse 17.1° 66% 1.74 km/h 0 mm
18:00 nubi sparse 15.5° 68% 4.66 km/h 0 mm
21:00 cielo sereno 13.4° 69% 5.07 km/h 0 mm
Sabato 24 Aprile
Temp. max: 19.9°
Temp. min: 10.4°
Ora Tempo Temperatura Umidità Vento Precipitazioni
00:00 cielo sereno 11.7° 71% 4.41 km/h 0 mm
03:00 cielo sereno 10.4° 72% 4.82 km/h 0 mm
06:00 cielo sereno 11.9° 65% 4.64 km/h 0 mm
09:00 cielo sereno 17.1° 52% 4.96 km/h 0 mm
12:00 cielo sereno 19.3° 49% 1.85 km/h 0 mm
15:00 cielo sereno 19.9° 49% 3.46 km/h 0 mm
18:00 nubi sparse 16.1° 64% 3.37 km/h 0 mm
21:00 nubi sparse 13.8° 64% 2.86 km/h 0 mm
Domenica 25 Aprile
Temp. max: 16.6°
Temp. min: 11.4°
Ora Tempo Temperatura Umidità Vento Precipitazioni
00:00 poche nuvole 12.3° 67% 2.41 km/h 0 mm
03:00 cielo sereno 11.4° 62% 2 km/h 0 mm
06:00 nubi sparse 12.5° 58% 1.53 km/h 0 mm
09:00 nubi sparse 15.5° 53% 1.55 km/h 0 mm
12:00 nubi sparse 16.5° 56% 3.23 km/h 0 mm
15:00 cielo coperto 16.6° 55% 2.27 km/h 0 mm
18:00 cielo coperto 15.3° 67% 1.59 km/h 0 mm
21:00 cielo coperto 14.5° 68% 1.32 km/h 0 mm
Lunedì 26 Aprile
Temp. max: 17.0°
Temp. min: 12.2°
Ora Tempo Temperatura Umidità Vento Precipitazioni
00:00 nubi sparse 13.1° 69% 2.08 km/h 0 mm
03:00 cielo coperto 12.2° 73% 2.44 km/h 0 mm
06:00 cielo coperto 13.4° 73% 3.53 km/h 0 mm
09:00 nubi sparse 16.3° 70% 7.45 km/h 0 mm
12:00 nubi sparse 17.0° 67% 8.66 km/h 0 mm
15:00 cielo coperto 16.9° 67% 7.98 km/h 0 mm
18:00 cielo coperto 15.2° 72% 5.98 km/h 0 mm
21:00 pioggia leggera 15.1° 75% 6.72 km/h 0.22 mm
Martedì 27 Aprile
Temp. max: 16.6°
Temp. min: 14.8°
Ora Tempo Temperatura Umidità Vento Precipitazioni
00:00 pioggia leggera 14.8° 77% 5.44 km/h 0.42 mm
03:00 cielo coperto 14.9° 82% 9.27 km/h 0 mm
06:00 pioggia leggera 15.0° 89% 8.9 km/h 0.27 mm
09:00 pioggia leggera 15.5° 92% 9.43 km/h 0.35 mm
12:00 pioggia leggera 16.6° 84% 9.15 km/h 1.30 mm
15:00 pioggia leggera 16.6° 84% 7.43 km/h 0.25 mm
18:00 nubi sparse 15.7° 91% 7.14 km/h 0 mm

Live Cam

VUOI RICEVERE PIÚ INFORMAZIONI SUI NOSTRI SERVIZI?

Usa la form di contatti sul sito o contattaci telefonicamente